sensor_id;sensor_type;location;lat;lon;timestamp;temperature;humidity
22680;DHT22;11507;44.858;10.374;2023-04-15T00:00:36;9.00;99.90
22680;DHT22;11507;44.858;10.374;2023-04-15T00:03:02;8.90;99.90
22680;DHT22;11507;44.858;10.374;2023-04-15T00:05:29;8.80;99.90
22680;DHT22;11507;44.858;10.374;2023-04-15T00:07:57;8.70;99.90
22680;DHT22;11507;44.858;10.374;2023-04-15T00:10:26;8.60;99.90
22680;DHT22;11507;44.858;10.374;2023-04-15T00:12:52;8.50;99.90
22680;DHT22;11507;44.858;10.374;2023-04-15T00:15:18;8.50;99.90
22680;DHT22;11507;44.858;10.374;2023-04-15T00:17:44;8.40;99.90
22680;DHT22;11507;44.858;10.374;2023-04-15T00:20:10;8.30;99.90
22680;DHT22;11507;44.858;10.374;2023-04-15T00:22:36;8.20;99.90
22680;DHT22;11507;44.858;10.374;2023-04-15T00:25:02;8.20;99.90
22680;DHT22;11507;44.858;10.374;2023-04-15T00:27:27;8.00;99.90
22680;DHT22;11507;44.858;10.374;2023-04-15T00:29:55;8.00;99.90
22680;DHT22;11507;44.858;10.374;2023-04-15T00:32:21;7.90;99.90
22680;DHT22;11507;44.858;10.374;2023-04-15T00:34:47;7.90;99.90
22680;DHT22;11507;44.858;10.374;2023-04-15T00:37:14;7.80;99.90
22680;DHT22;11507;44.858;10.374;2023-04-15T00:39:40;7.80;99.90
22680;DHT22;11507;44.858;10.374;2023-04-15T00:42:05;7.70;99.90
22680;DHT22;11507;44.858;10.374;2023-04-15T00:44:31;7.70;99.90
22680;DHT22;11507;44.858;10.374;2023-04-15T00:46:59;7.70;99.90
22680;DHT22;11507;44.858;10.374;2023-04-15T00:49:25;7.60;99.90
22680;DHT22;11507;44.858;10.374;2023-04-15T00:51:53;7.60;99.90
22680;DHT22;11507;44.858;10.374;2023-04-15T00:54:19;7.50;99.90
22680;DHT22;11507;44.858;10.374;2023-04-15T00:56:46;7.40;99.90
22680;DHT22;11507;44.858;10.374;2023-04-15T00:59:12;7.30;99.90
22680;DHT22;11507;44.858;10.374;2023-04-15T01:01:39;7.30;99.90
22680;DHT22;11507;44.858;10.374;2023-04-15T01:04:06;7.20;99.90
22680;DHT22;11507;44.858;10.374;2023-04-15T01:06:34;7.20;99.90
22680;DHT22;11507;44.858;10.374;2023-04-15T01:09:00;7.10;99.90
22680;DHT22;11507;44.858;10.374;2023-04-15T01:11:26;7.10;99.90
22680;DHT22;11507;44.858;10.374;2023-04-15T01:13:52;7.00;99.90
22680;DHT22;11507;44.858;10.374;2023-04-15T01:16:20;7.00;99.90
22680;DHT22;11507;44.858;10.374;2023-04-15T01:18:46;7.00;99.90
22680;DHT22;11507;44.858;10.374;2023-04-15T01:21:12;7.00;99.90
22680;DHT22;11507;44.858;10.374;2023-04-15T01:23:39;7.00;99.90
22680;DHT22;11507;44.858;10.374;2023-04-15T01:26:06;6.90;99.90
22680;DHT22;11507;44.858;10.374;2023-04-15T01:28:33;6.90;99.90
22680;DHT22;11507;44.858;10.374;2023-04-15T01:31:08;6.80;99.90
22680;DHT22;11507;44.858;10.374;2023-04-15T01:33:36;6.80;99.90
22680;DHT22;11507;44.858;10.374;2023-04-15T01:36:02;6.70;99.90
22680;DHT22;11507;44.858;10.374;2023-04-15T01:38:28;6.60;99.90
22680;DHT22;11507;44.858;10.374;2023-04-15T01:40:55;6.60;99.90
22680;DHT22;11507;44.858;10.374;2023-04-15T01:43:23;6.60;99.90
22680;DHT22;11507;44.858;10.374;2023-04-15T01:45:49;6.50;99.90
22680;DHT22;11507;44.858;10.374;2023-04-15T01:48:15;6.50;99.90
22680;DHT22;11507;44.858;10.374;2023-04-15T01:50:41;6.40;99.90
22680;DHT22;11507;44.858;10.374;2023-04-15T01:53:08;6.30;99.90
22680;DHT22;11507;44.858;10.374;2023-04-15T01:55:34;6.30;99.90
22680;DHT22;11507;44.858;10.374;2023-04-15T01:58:00;6.20;99.90
22680;DHT22;11507;44.858;10.374;2023-04-15T02:00:26;6.20;99.90
22680;DHT22;11507;44.858;10.374;2023-04-15T02:02:51;6.20;99.90
22680;DHT22;11507;44.858;10.374;2023-04-15T02:05:19;6.20;99.90
22680;DHT22;11507;44.858;10.374;2023-04-15T02:07:49;6.10;99.90
22680;DHT22;11507;44.858;10.374;2023-04-15T02:10:18;6.00;99.90
22680;DHT22;11507;44.858;10.374;2023-04-15T02:12:44;5.90;99.90
22680;DHT22;11507;44.858;10.374;2023-04-15T02:15:10;5.90;99.90
22680;DHT22;11507;44.858;10.374;2023-04-15T02:17:36;5.80;99.90
22680;DHT22;11507;44.858;10.374;2023-04-15T02:20:03;5.70;99.90
22680;DHT22;11507;44.858;10.374;2023-04-15T02:22:30;5.60;99.90
22680;DHT22;11507;44.858;10.374;2023-04-15T02:24:56;5.60;99.90
22680;DHT22;11507;44.858;10.374;2023-04-15T02:27:23;5.60;99.90
22680;DHT22;11507;44.858;10.374;2023-04-15T02:29:49;5.60;99.90
22680;DHT22;11507;44.858;10.374;2023-04-15T02:32:15;5.50;99.90
22680;DHT22;11507;44.858;10.374;2023-04-15T02:34:41;5.50;99.90
22680;DHT22;11507;44.858;10.374;2023-04-15T02:37:09;5.40;99.90
22680;DHT22;11507;44.858;10.374;2023-04-15T02:39:35;5.40;99.90
22680;DHT22;11507;44.858;10.374;2023-04-15T02:42:01;5.40;99.90
22680;DHT22;11507;44.858;10.374;2023-04-15T02:44:27;5.40;99.90
22680;DHT22;11507;44.858;10.374;2023-04-15T02:46:57;5.30;99.90
22680;DHT22;11507;44.858;10.374;2023-04-15T02:49:24;5.30;99.90
22680;DHT22;11507;44.858;10.374;2023-04-15T02:51:50;5.20;99.90
22680;DHT22;11507;44.858;10.374;2023-04-15T02:54:18;5.20;99.90
22680;DHT22;11507;44.858;10.374;2023-04-15T02:56:44;5.00;99.90
22680;DHT22;11507;44.858;10.374;2023-04-15T02:59:13;4.90;99.90
22680;DHT22;11507;44.858;10.374;2023-04-15T03:01:39;4.90;99.90
22680;DHT22;11507;44.858;10.374;2023-04-15T03:04:05;4.70;99.90
22680;DHT22;11507;44.858;10.374;2023-04-15T03:06:33;4.70;99.90
22680;DHT22;11507;44.858;10.374;2023-04-15T03:08:59;4.70;99.90
22680;DHT22;11507;44.858;10.374;2023-04-15T03:11:29;4.60;99.90
22680;DHT22;11507;44.858;10.374;2023-04-15T03:13:56;4.60;99.90
22680;DHT22;11507;44.858;10.374;2023-04-15T03:16:33;4.50;99.90
22680;DHT22;11507;44.858;10.374;2023-04-15T03:18:58;4.50;99.90
22680;DHT22;11507;44.858;10.374;2023-04-15T03:21:24;4.40;99.90
22680;DHT22;11507;44.858;10.374;2023-04-15T03:23:53;4.30;99.90
22680;DHT22;11507;44.858;10.374;2023-04-15T03:26:28;4.30;99.90
22680;DHT22;11507;44.858;10.374;2023-04-15T03:28:57;4.30;99.90
22680;DHT22;11507;44.858;10.374;2023-04-15T03:31:24;4.20;99.90
22680;DHT22;11507;44.858;10.374;2023-04-15T03:33:49;4.20;99.90
22680;DHT22;11507;44.858;10.374;2023-04-15T03:36:15;4.10;99.90
22680;DHT22;11507;44.858;10.374;2023-04-15T03:38:41;4.10;99.90
22680;DHT22;11507;44.858;10.374;2023-04-15T03:41:07;4.00;99.90
22680;DHT22;11507;44.858;10.374;2023-04-15T03:43:33;4.00;99.90
22680;DHT22;11507;44.858;10.374;2023-04-15T03:46:00;3.90;99.90
22680;DHT22;11507;44.858;10.374;2023-04-15T03:48:26;3.90;99.90
22680;DHT22;11507;44.858;10.374;2023-04-15T03:50:51;3.90;99.90
22680;DHT22;11507;44.858;10.374;2023-04-15T03:53:17;3.80;99.90
22680;DHT22;11507;44.858;10.374;2023-04-15T03:55:43;3.80;99.90
22680;DHT22;11507;44.858;10.374;2023-04-15T03:58:09;3.90;99.90
22680;DHT22;11507;44.858;10.374;2023-04-15T04:00:37;3.90;99.90
22680;DHT22;11507;44.858;10.374;2023-04-15T04:03:03;3.80;99.90
22680;DHT22;11507;44.858;10.374;2023-04-15T04:05:29;3.70;99.90
22680;DHT22;11507;44.858;10.374;2023-04-15T04:07:55;3.70;99.90
22680;DHT22;11507;44.858;10.374;2023-04-15T04:10:21;3.70;99.90
22680;DHT22;11507;44.858;10.374;2023-04-15T04:12:47;3.60;99.90
22680;DHT22;11507;44.858;10.374;2023-04-15T04:15:13;3.50;99.90
22680;DHT22;11507;44.858;10.374;2023-04-15T04:17:39;3.50;99.90
22680;DHT22;11507;44.858;10.374;2023-04-15T04:20:05;3.50;99.90
22680;DHT22;11507;44.858;10.374;2023-04-15T04:22:31;3.40;99.90
22680;DHT22;11507;44.858;10.374;2023-04-15T04:25:01;3.40;99.90
22680;DHT22;11507;44.858;10.374;2023-04-15T04:27:27;3.40;99.90
22680;DHT22;11507;44.858;10.374;2023-04-15T04:29:52;3.40;99.90
22680;DHT22;11507;44.858;10.374;2023-04-15T04:32:18;3.30;99.90
22680;DHT22;11507;44.858;10.374;2023-04-15T04:34:44;3.20;99.90
22680;DHT22;11507;44.858;10.374;2023-04-15T04:37:10;3.10;99.90
22680;DHT22;11507;44.858;10.374;2023-04-15T04:39:35;3.00;99.90
22680;DHT22;11507;44.858;10.374;2023-04-15T04:42:01;3.00;99.90
22680;DHT22;11507;44.858;10.374;2023-04-15T04:44:27;3.00;99.90
22680;DHT22;11507;44.858;10.374;2023-04-15T04:46:52;2.90;99.90
22680;DHT22;11507;44.858;10.374;2023-04-15T04:49:18;2.90;99.90
22680;DHT22;11507;44.858;10.374;2023-04-15T04:51:44;2.90;99.90
22680;DHT22;11507;44.858;10.374;2023-04-15T04:54:12;3.00;99.90
22680;DHT22;11507;44.858;10.374;2023-04-15T04:56:38;3.00;99.90
22680;DHT22;11507;44.858;10.374;2023-04-15T04:59:04;3.10;99.90
22680;DHT22;11507;44.858;10.374;2023-04-15T05:01:31;3.20;99.90
22680;DHT22;11507;44.858;10.374;2023-04-15T05:03:57;3.30;99.90
22680;DHT22;11507;44.858;10.374;2023-04-15T05:06:22;3.30;99.90
22680;DHT22;11507;44.858;10.374;2023-04-15T05:08:48;3.40;99.90
22680;DHT22;11507;44.858;10.374;2023-04-15T05:11:14;3.40;99.90
22680;DHT22;11507;44.858;10.374;2023-04-15T05:13:39;3.40;99.90
22680;DHT22;11507;44.858;10.374;2023-04-15T05:16:06;3.40;99.90
22680;DHT22;11507;44.858;10.374;2023-04-15T05:18:33;3.50;99.90
22680;DHT22;11507;44.858;10.374;2023-04-15T05:20:59;3.50;99.90
22680;DHT22;11507;44.858;10.374;2023-04-15T05:23:25;3.60;99.90
22680;DHT22;11507;44.858;10.374;2023-04-15T05:25:50;3.70;99.90
22680;DHT22;11507;44.858;10.374;2023-04-15T05:28:16;3.80;99.90
22680;DHT22;11507;44.858;10.374;2023-04-15T05:30:42;3.90;99.90
22680;DHT22;11507;44.858;10.374;2023-04-15T05:33:08;4.00;99.90
22680;DHT22;11507;44.858;10.374;2023-04-15T05:35:33;4.10;99.90
22680;DHT22;11507;44.858;10.374;2023-04-15T05:37:59;4.20;99.90
22680;DHT22;11507;44.858;10.374;2023-04-15T05:40:25;4.40;99.90
22680;DHT22;11507;44.858;10.374;2023-04-15T05:42:53;4.60;99.90
22680;DHT22;11507;44.858;10.374;2023-04-15T05:45:19;4.70;99.90
22680;DHT22;11507;44.858;10.374;2023-04-15T05:47:46;5.00;99.90
22680;DHT22;11507;44.858;10.374;2023-04-15T05:50:14;5.20;99.90
22680;DHT22;11507;44.858;10.374;2023-04-15T05:52:40;5.30;99.90
22680;DHT22;11507;44.858;10.374;2023-04-15T05:55:06;5.50;99.90
22680;DHT22;11507;44.858;10.374;2023-04-15T05:57:32;5.70;99.90
22680;DHT22;11507;44.858;10.374;2023-04-15T06:00:00;6.00;99.90
22680;DHT22;11507;44.858;10.374;2023-04-15T06:02:25;6.20;99.90
22680;DHT22;11507;44.858;10.374;2023-04-15T06:04:52;6.50;99.90
22680;DHT22;11507;44.858;10.374;2023-04-15T06:07:19;6.70;99.90
22680;DHT22;11507;44.858;10.374;2023-04-15T06:09:45;7.10;99.90
22680;DHT22;11507;44.858;10.374;2023-04-15T06:12:11;7.40;99.90
22680;DHT22;11507;44.858;10.374;2023-04-15T06:14:38;7.80;99.90
22680;DHT22;11507;44.858;10.374;2023-04-15T06:17:09;8.10;99.90
22680;DHT22;11507;44.858;10.374;2023-04-15T06:19:38;8.40;99.90
22680;DHT22;11507;44.858;10.374;2023-04-15T06:22:05;8.70;99.90
22680;DHT22;11507;44.858;10.374;2023-04-15T06:24:31;9.00;99.90
22680;DHT22;11507;44.858;10.374;2023-04-15T06:26:57;9.20;99.90
22680;DHT22;11507;44.858;10.374;2023-04-15T06:29:23;9.40;99.90
22680;DHT22;11507;44.858;10.374;2023-04-15T06:31:49;9.60;99.90
22680;DHT22;11507;44.858;10.374;2023-04-15T06:34:15;9.80;99.90
22680;DHT22;11507;44.858;10.374;2023-04-15T06:36:41;9.90;99.90
22680;DHT22;11507;44.858;10.374;2023-04-15T06:39:08;10.10;99.90
22680;DHT22;11507;44.858;10.374;2023-04-15T06:41:34;10.30;99.90
22680;DHT22;11507;44.858;10.374;2023-04-15T06:44:06;10.60;99.90
22680;DHT22;11507;44.858;10.374;2023-04-15T06:46:31;10.80;99.90
22680;DHT22;11507;44.858;10.374;2023-04-15T06:48:57;10.90;99.90
22680;DHT22;11507;44.858;10.374;2023-04-15T06:51:23;11.20;99.90
22680;DHT22;11507;44.858;10.374;2023-04-15T06:53:49;11.40;99.90
22680;DHT22;11507;44.858;10.374;2023-04-15T06:56:15;11.40;99.90
22680;DHT22;11507;44.858;10.374;2023-04-15T06:58:41;11.60;99.90
22680;DHT22;11507;44.858;10.374;2023-04-15T07:01:07;11.90;99.90
22680;DHT22;11507;44.858;10.374;2023-04-15T07:03:35;12.00;99.90
22680;DHT22;11507;44.858;10.374;2023-04-15T07:06:01;12.10;99.90
22680;DHT22;11507;44.858;10.374;2023-04-15T07:08:33;12.30;99.90
22680;DHT22;11507;44.858;10.374;2023-04-15T07:10:59;12.50;99.90
22680;DHT22;11507;44.858;10.374;2023-04-15T07:13:27;12.60;99.90
22680;DHT22;11507;44.858;10.374;2023-04-15T07:15:52;12.80;99.90
22680;DHT22;11507;44.858;10.374;2023-04-15T07:18:19;13.00;99.90
22680;DHT22;11507;44.858;10.374;2023-04-15T07:20:46;13.10;99.90
22680;DHT22;11507;44.858;10.374;2023-04-15T07:23:16;13.20;99.90
22680;DHT22;11507;44.858;10.374;2023-04-15T07:25:44;13.20;99.90
22680;DHT22;11507;44.858;10.374;2023-04-15T07:28:11;13.30;99.90
22680;DHT22;11507;44.858;10.374;2023-04-15T07:30:38;13.30;99.90
22680;DHT22;11507;44.858;10.374;2023-04-15T07:33:04;13.40;99.90
22680;DHT22;11507;44.858;10.374;2023-04-15T07:38:00;13.50;99.90
22680;DHT22;11507;44.858;10.374;2023-04-15T07:40:34;13.70;99.90
22680;DHT22;11507;44.858;10.374;2023-04-15T07:43:01;14.00;99.90
22680;DHT22;11507;44.858;10.374;2023-04-15T07:45:27;14.40;99.90
22680;DHT22;11507;44.858;10.374;2023-04-15T07:47:54;14.40;99.90
22680;DHT22;11507;44.858;10.374;2023-04-15T07:50:22;14.30;99.90
22680;DHT22;11507;44.858;10.374;2023-04-15T07:52:49;14.50;99.90
22680;DHT22;11507;44.858;10.374;2023-04-15T07:57:48;14.80;99.90
22680;DHT22;11507;44.858;10.374;2023-04-15T08:00:17;14.80;99.90
22680;DHT22;11507;44.858;10.374;2023-04-15T08:02:44;15.00;99.90
22680;DHT22;11507;44.858;10.374;2023-04-15T08:05:12;15.30;99.90
22680;DHT22;11507;44.858;10.374;2023-04-15T08:07:38;15.60;99.90
22680;DHT22;11507;44.858;10.374;2023-04-15T08:10:05;16.00;99.90
22680;DHT22;11507;44.858;10.374;2023-04-15T08:12:31;16.30;99.90
22680;DHT22;11507;44.858;10.374;2023-04-15T08:14:57;16.50;99.90
22680;DHT22;11507;44.858;10.374;2023-04-15T08:17:23;16.60;98.50
22680;DHT22;11507;44.858;10.374;2023-04-15T08:19:50;16.80;99.90
22680;DHT22;11507;44.858;10.374;2023-04-15T08:22:18;17.00;99.90
22680;DHT22;11507;44.858;10.374;2023-04-15T08:24:44;17.10;99.10
22680;DHT22;11507;44.858;10.374;2023-04-15T08:27:14;17.20;99.90
22680;DHT22;11507;44.858;10.374;2023-04-15T08:29:42;17.30;99.90
22680;DHT22;11507;44.858;10.374;2023-04-15T08:32:08;17.40;99.20
22680;DHT22;11507;44.858;10.374;2023-04-15T08:34:34;17.10;98.00
22680;DHT22;11507;44.858;10.374;2023-04-15T08:37:00;17.10;98.40
22680;DHT22;11507;44.858;10.374;2023-04-15T08:39:26;17.20;98.20
22680;DHT22;11507;44.858;10.374;2023-04-15T08:41:58;17.20;95.20
22680;DHT22;11507;44.858;10.374;2023-04-15T08:44:28;17.20;96.30
22680;DHT22;11507;44.858;10.374;2023-04-15T08:46:54;17.10;96.20
22680;DHT22;11507;44.858;10.374;2023-04-15T08:49:22;17.00;96.20
22680;DHT22;11507;44.858;10.374;2023-04-15T08:51:51;17.10;95.80
22680;DHT22;11507;44.858;10.374;2023-04-15T08:57:12;17.40;97.30
22680;DHT22;11507;44.858;10.374;2023-04-15T08:59:40;17.70;97.10
22680;DHT22;11507;44.858;10.374;2023-04-15T09:02:10;17.90;97.20
22680;DHT22;11507;44.858;10.374;2023-04-15T09:04:46;18.10;96.60
22680;DHT22;11507;44.858;10.374;2023-04-15T09:07:13;18.40;97.90
22680;DHT22;11507;44.858;10.374;2023-04-15T09:12:20;18.90;94.40
22680;DHT22;11507;44.858;10.374;2023-04-15T09:17:17;19.20;91.40
22680;DHT22;11507;44.858;10.374;2023-04-15T09:19:45;19.30;91.30
22680;DHT22;11507;44.858;10.374;2023-04-15T09:22:15;19.40;93.20
22680;DHT22;11507;44.858;10.374;2023-04-15T09:24:41;19.70;91.90
22680;DHT22;11507;44.858;10.374;2023-04-15T09:27:10;20.00;89.70
22680;DHT22;11507;44.858;10.374;2023-04-15T09:29:36;19.80;88.90
22680;DHT22;11507;44.858;10.374;2023-04-15T09:34:42;20.30;94.90
22680;DHT22;11507;44.858;10.374;2023-04-15T09:39:47;21.10;91.90
22680;DHT22;11507;44.858;10.374;2023-04-15T09:42:14;21.60;92.00
22680;DHT22;11507;44.858;10.374;2023-04-15T09:44:41;22.00;90.20
22680;DHT22;11507;44.858;10.374;2023-04-15T09:47:07;22.40;90.50
22680;DHT22;11507;44.858;10.374;2023-04-15T09:49:33;22.80;90.10
22680;DHT22;11507;44.858;10.374;2023-04-15T09:51:59;23.10;85.40
22680;DHT22;11507;44.858;10.374;2023-04-15T09:54:31;23.10;84.60
22680;DHT22;11507;44.858;10.374;2023-04-15T09:57:03;23.10;77.00
22680;DHT22;11507;44.858;10.374;2023-04-15T10:02:27;22.50;84.80
22680;DHT22;11507;44.858;10.374;2023-04-15T10:04:54;22.90;82.70
22680;DHT22;11507;44.858;10.374;2023-04-15T10:07:21;23.40;85.80
22680;DHT22;11507;44.858;10.374;2023-04-15T10:09:48;24.00;86.30
22680;DHT22;11507;44.858;10.374;2023-04-15T10:12:17;24.50;81.10
22680;DHT22;11507;44.858;10.374;2023-04-15T10:14:47;24.90;79.70
22680;DHT22;11507;44.858;10.374;2023-04-15T10:17:13;25.30;78.60
22680;DHT22;11507;44.858;10.374;2023-04-15T10:19:42;25.00;79.40
22680;DHT22;11507;44.858;10.374;2023-04-15T10:22:09;25.20;76.60
22680;DHT22;11507;44.858;10.374;2023-04-15T10:24:35;25.30;72.70
22680;DHT22;11507;44.858;10.374;2023-04-15T10:27:05;25.30;75.40
22680;DHT22;11507;44.858;10.374;2023-04-15T10:29:31;25.70;76.80
22680;DHT22;11507;44.858;10.374;2023-04-15T10:31:57;25.90;72.80
22680;DHT22;11507;44.858;10.374;2023-04-15T10:34:23;25.30;66.60
22680;DHT22;11507;44.858;10.374;2023-04-15T10:36:50;25.00;69.60
22680;DHT22;11507;44.858;10.374;2023-04-15T10:42:16;25.30;70.50
22680;DHT22;11507;44.858;10.374;2023-04-15T10:44:49;25.60;73.70
22680;DHT22;11507;44.858;10.374;2023-04-15T10:47:18;26.10;71.00
22680;DHT22;11507;44.858;10.374;2023-04-15T10:50:19;26.50;67.70
22680;DHT22;11507;44.858;10.374;2023-04-15T10:52:41;26.90;66.20
22680;DHT22;11507;44.858;10.374;2023-04-15T10:55:14;27.20;68.10
22680;DHT22;11507;44.858;10.374;2023-04-15T10:57:41;27.00;61.50
22680;DHT22;11507;44.858;10.374;2023-04-15T11:00:09;27.00;66.20
22680;DHT22;11507;44.858;10.374;2023-04-15T11:05:08;27.30;65.00
22680;DHT22;11507;44.858;10.374;2023-04-15T11:07:46;27.70;62.80
22680;DHT22;11507;44.858;10.374;2023-04-15T11:12:39;28.70;60.80
22680;DHT22;11507;44.858;10.374;2023-04-15T11:17:50;29.10;58.00
22680;DHT22;11507;44.858;10.374;2023-04-15T11:20:17;29.10;58.00
22680;DHT22;11507;44.858;10.374;2023-04-15T11:22:48;29.30;57.90
22680;DHT22;11507;44.858;10.374;2023-04-15T11:25:26;29.80;54.00
22680;DHT22;11507;44.858;10.374;2023-04-15T11:27:54;30.30;58.10
22680;DHT22;11507;44.858;10.374;2023-04-15T11:30:21;30.80;56.00
22680;DHT22;11507;44.858;10.374;2023-04-15T11:32:50;31.30;54.10
22680;DHT22;11507;44.858;10.374;2023-04-15T11:35:16;31.70;53.60
22680;DHT22;11507;44.858;10.374;2023-04-15T11:37:43;32.10;51.80
22680;DHT22;11507;44.858;10.374;2023-04-15T11:40:11;32.30;49.30
22680;DHT22;11507;44.858;10.374;2023-04-15T11:42:37;32.70;48.90
22680;DHT22;11507;44.858;10.374;2023-04-15T11:45:11;32.90;48.00
22680;DHT22;11507;44.858;10.374;2023-04-15T11:47:39;32.60;46.00
22680;DHT22;11507;44.858;10.374;2023-04-15T11:50:27;32.60;47.20
22680;DHT22;11507;44.858;10.374;2023-04-15T11:55:19;32.20;47.20
22680;DHT22;11507;44.858;10.374;2023-04-15T11:57:45;31.90;45.60
22680;DHT22;11507;44.858;10.374;2023-04-15T12:00:11;31.60;46.90
22680;DHT22;11507;44.858;10.374;2023-04-15T12:02:39;31.70;48.10
22680;DHT22;11507;44.858;10.374;2023-04-15T12:05:06;30.90;46.30
22680;DHT22;11507;44.858;10.374;2023-04-15T12:07:33;30.80;45.30
22680;DHT22;11507;44.858;10.374;2023-04-15T12:10:00;31.00;47.20
22680;DHT22;11507;44.858;10.374;2023-04-15T12:12:30;31.20;42.80
22680;DHT22;11507;44.858;10.374;2023-04-15T12:14:56;31.00;44.70
22680;DHT22;11507;44.858;10.374;2023-04-15T12:17:24;31.00;43.80
22680;DHT22;11507;44.858;10.374;2023-04-15T12:19:54;31.00;39.50
22680;DHT22;11507;44.858;10.374;2023-04-15T12:22:21;31.80;43.10
22680;DHT22;11507;44.858;10.374;2023-04-15T12:24:52;32.30;44.40
22680;DHT22;11507;44.858;10.374;2023-04-15T12:27:24;32.30;41.70
22680;DHT22;11507;44.858;10.374;2023-04-15T12:29:56;32.40;42.30
22680;DHT22;11507;44.858;10.374;2023-04-15T12:32:27;32.40;41.00
22680;DHT22;11507;44.858;10.374;2023-04-15T12:34:54;32.60;42.00
22680;DHT22;11507;44.858;10.374;2023-04-15T12:37:19;33.10;42.30
22680;DHT22;11507;44.858;10.374;2023-04-15T12:39:48;33.40;41.70
22680;DHT22;11507;44.858;10.374;2023-04-15T12:42:15;33.10;42.30
22680;DHT22;11507;44.858;10.374;2023-04-15T12:44:42;33.50;42.20
22680;DHT22;11507;44.858;10.374;2023-04-15T12:47:08;33.70;42.20
22680;DHT22;11507;44.858;10.374;2023-04-15T12:49:35;33.80;41.50
22680;DHT22;11507;44.858;10.374;2023-04-15T12:52:01;33.50;40.10
22680;DHT22;11507;44.858;10.374;2023-04-15T12:54:27;33.30;40.60
22680;DHT22;11507;44.858;10.374;2023-04-15T12:56:53;33.70;41.70
22680;DHT22;11507;44.858;10.374;2023-04-15T12:59:20;34.40;41.30
22680;DHT22;11507;44.858;10.374;2023-04-15T13:01:46;34.90;39.60
22680;DHT22;11507;44.858;10.374;2023-04-15T13:04:13;35.50;40.90
22680;DHT22;11507;44.858;10.374;2023-04-15T13:06:38;35.90;38.50
22680;DHT22;11507;44.858;10.374;2023-04-15T13:09:04;36.20;39.70
22680;DHT22;11507;44.858;10.374;2023-04-15T13:11:32;35.90;37.40
22680;DHT22;11507;44.858;10.374;2023-04-15T13:14:02;35.70;38.20
22680;DHT22;11507;44.858;10.374;2023-04-15T13:16:31;35.30;37.60
22680;DHT22;11507;44.858;10.374;2023-04-15T13:19:00;34.40;38.10
22680;DHT22;11507;44.858;10.374;2023-04-15T13:21:26;33.50;38.30
22680;DHT22;11507;44.858;10.374;2023-04-15T13:23:52;33.10;39.40
22680;DHT22;11507;44.858;10.374;2023-04-15T13:26:19;32.70;40.30
22680;DHT22;11507;44.858;10.374;2023-04-15T13:28:45;32.40;40.10
22680;DHT22;11507;44.858;10.374;2023-04-15T13:31:10;32.30;39.80
22680;DHT22;11507;44.858;10.374;2023-04-15T13:33:36;32.20;39.80
22680;DHT22;11507;44.858;10.374;2023-04-15T13:36:02;31.90;39.30
22680;DHT22;11507;44.858;10.374;2023-04-15T13:38:29;32.20;40.80
22680;DHT22;11507;44.858;10.374;2023-04-15T13:40:55;32.70;40.80
22680;DHT22;11507;44.858;10.374;2023-04-15T13:43:21;33.30;40.00
22680;DHT22;11507;44.858;10.374;2023-04-15T13:45:47;33.50;38.50
22680;DHT22;11507;44.858;10.374;2023-04-15T13:48:14;33.30;39.40
22680;DHT22;11507;44.858;10.374;2023-04-15T13:50:39;33.80;39.70
22680;DHT22;11507;44.858;10.374;2023-04-15T13:53:10;33.80;38.60
22680;DHT22;11507;44.858;10.374;2023-04-15T13:55:36;34.00;38.20
22680;DHT22;11507;44.858;10.374;2023-04-15T13:58:06;34.40;39.00
22680;DHT22;11507;44.858;10.374;2023-04-15T14:00:33;34.40;38.50
22680;DHT22;11507;44.858;10.374;2023-04-15T14:03:01;33.80;39.00
22680;DHT22;11507;44.858;10.374;2023-04-15T14:05:28;34.30;38.90
22680;DHT22;11507;44.858;10.374;2023-04-15T14:07:56;34.70;39.40
22680;DHT22;11507;44.858;10.374;2023-04-15T14:10:21;35.00;39.50
22680;DHT22;11507;44.858;10.374;2023-04-15T14:12:47;34.60;38.80
22680;DHT22;11507;44.858;10.374;2023-04-15T14:15:14;34.70;37.40
22680;DHT22;11507;44.858;10.374;2023-04-15T14:17:40;34.90;37.40
22680;DHT22;11507;44.858;10.374;2023-04-15T14:20:07;34.80;37.00
22680;DHT22;11507;44.858;10.374;2023-04-15T14:22:33;34.30;37.00
22680;DHT22;11507;44.858;10.374;2023-04-15T14:25:01;33.90;36.90
22680;DHT22;11507;44.858;10.374;2023-04-15T14:27:27;33.20;37.20
22680;DHT22;11507;44.858;10.374;2023-04-15T14:29:53;33.10;39.20
22680;DHT22;11507;44.858;10.374;2023-04-15T14:32:20;33.20;37.70
22680;DHT22;11507;44.858;10.374;2023-04-15T14:34:46;33.50;36.90
22680;DHT22;11507;44.858;10.374;2023-04-15T14:37:12;33.90;37.40
22680;DHT22;11507;44.858;10.374;2023-04-15T14:39:42;34.20;37.20
22680;DHT22;11507;44.858;10.374;2023-04-15T14:42:08;34.20;36.70
22680;DHT22;11507;44.858;10.374;2023-04-15T14:44:33;34.40;36.80
22680;DHT22;11507;44.858;10.374;2023-04-15T14:47:00;34.10;36.10
22680;DHT22;11507;44.858;10.374;2023-04-15T14:49:25;34.00;34.70
22680;DHT22;11507;44.858;10.374;2023-04-15T14:51:52;33.80;34.50
22680;DHT22;11507;44.858;10.374;2023-04-15T14:54:19;33.90;37.50
22680;DHT22;11507;44.858;10.374;2023-04-15T14:56:45;34.30;37.00
22680;DHT22;11507;44.858;10.374;2023-04-15T14:59:10;34.50;35.90
22680;DHT22;11507;44.858;10.374;2023-04-15T15:01:36;34.30;36.20
22680;DHT22;11507;44.858;10.374;2023-04-15T15:04:21;34.70;36.40
22680;DHT22;11507;44.858;10.374;2023-04-15T15:06:47;34.60;36.00
22680;DHT22;11507;44.858;10.374;2023-04-15T15:09:13;34.40;35.70
22680;DHT22;11507;44.858;10.374;2023-04-15T15:11:39;33.80;36.40
22680;DHT22;11507;44.858;10.374;2023-04-15T15:16:36;32.20;38.70
22680;DHT22;11507;44.858;10.374;2023-04-15T15:19:02;31.60;40.90
22680;DHT22;11507;44.858;10.374;2023-04-15T15:21:28;31.40;41.30
22680;DHT22;11507;44.858;10.374;2023-04-15T15:23:55;31.10;42.40
22680;DHT22;11507;44.858;10.374;2023-04-15T15:26:22;31.00;41.50
22680;DHT22;11507;44.858;10.374;2023-04-15T15:28:48;30.10;42.10
22680;DHT22;11507;44.858;10.374;2023-04-15T15:31:15;29.30;43.10
22680;DHT22;11507;44.858;10.374;2023-04-15T15:33:42;28.80;44.60
22680;DHT22;11507;44.858;10.374;2023-04-15T15:36:09;29.10;44.00
22680;DHT22;11507;44.858;10.374;2023-04-15T15:38:36;29.50;44.60
22680;DHT22;11507;44.858;10.374;2023-04-15T15:41:04;29.10;43.60
22680;DHT22;11507;44.858;10.374;2023-04-15T15:43:29;29.00;43.80
22680;DHT22;11507;44.858;10.374;2023-04-15T15:45:55;29.40;43.70
22680;DHT22;11507;44.858;10.374;2023-04-15T15:48:21;29.30;43.90
22680;DHT22;11507;44.858;10.374;2023-04-15T15:50:48;28.90;43.20
22680;DHT22;11507;44.858;10.374;2023-04-15T15:53:14;28.40;44.50
22680;DHT22;11507;44.858;10.374;2023-04-15T15:55:45;27.90;45.90
22680;DHT22;11507;44.858;10.374;2023-04-15T15:58:12;27.20;46.00